Time;durP1;ratioP1;P1;durP2;ratioP2;P2;SDS_P1;SDS_P2;PMS_P1;PMS_P2;Temp;Humidity;BMP_temperature;BMP_pressure;BME280_temperature;BME280_humidity;BME280_pressure;Samples;Min_cycle;Max_cycle;Signal;HPM_P1;HPM_P2
2023/05/03 00:01:07;;;;;;;;;17.75;16.00;;;;;14.26;50.03;102046.28;5065000;28;45427;-78
2023/05/03 00:03:33;;;;;;;;;20.50;16.00;;;;;14.05;50.21;102016.28;5061301;28;45407;-72
2023/05/03 00:06:11;;;;;;;;;18.75;17.50;;;;;14.08;50.34;102028.59;5056918;28;45887;-77
2023/05/03 00:08:36;;;;;;;;;18.00;16.00;;;;;14.15;50.18;102035.66;5056264;28;48287;-75
2023/05/03 00:11:02;;;;;;;;;20.00;17.50;;;;;14.17;49.83;102032.16;5057701;28;45459;-76
2023/05/03 00:13:27;;;;;;;;;16.50;16.50;;;;;14.20;50.14;102042.72;5078425;28;45450;-76
2023/05/03 00:15:53;;;;;;;;;20.50;18.00;;;;;14.06;50.30;102020.66;5058244;28;45727;-73
2023/05/03 00:18:18;;;;;;;;;18.50;14.75;;;;;14.09;50.13;102027.69;5077312;27;45446;-77
2023/05/03 00:20:44;;;;;;;;;14.25;12.25;;;;;14.01;50.20;102019.75;5076529;28;45635;-77
2023/05/03 00:23:10;;;;;;;;;23.25;17.00;;;;;14.02;50.06;102024.13;5056865;28;45626;-77
2023/05/03 00:25:35;;;;;;;;;13.75;13.75;;;;;14.00;49.71;102025.91;5053940;28;45437;-72
2023/05/03 00:28:01;;;;;;;;;16.25;14.75;;;;;13.87;49.31;102016.97;5058520;28;46566;-75
2023/05/03 00:30:26;;;;;;;;;15.00;14.50;;;;;13.87;49.71;102031.91;5076500;28;45413;-77
2023/05/03 00:32:52;;;;;;;;;17.00;14.50;;;;;13.82;49.72;102025.72;5080375;28;45379;-78
2023/05/03 00:35:18;;;;;;;;;17.25;15.00;;;;;13.88;49.13;102038.94;5062801;28;45454;-75
2023/05/03 00:37:43;;;;;;;;;19.50;14.00;;;;;13.77;49.30;102033.59;5079118;28;47031;-78
2023/05/03 00:40:09;;;;;;;;;15.25;13.50;;;;;13.84;49.42;102024.00;5080497;27;45357;-75
2023/05/03 00:42:35;;;;;;;;;14.00;11.25;;;;;13.63;48.79;101993.94;5062418;28;45445;-72
2023/05/03 00:45:07;;;;;;;;;12.50;11.75;;;;;13.98;48.36;102039.03;5080303;27;45552;-77
2023/05/03 00:47:36;;;;;;;;;14.75;12.50;;;;;13.95;47.80;102040.75;5079631;27;45323;-76
2023/05/03 00:50:02;;;;;;;;;15.25;14.25;;;;;13.69;48.30;102007.19;5061752;28;45837;-75
2023/05/03 00:52:30;;;;;;;;;14.75;13.75;;;;;13.66;48.70;102009.75;5068313;28;45547;-77
2023/05/03 00:54:59;;;;;;;;;15.50;12.75;;;;;13.67;48.82;102026.47;5078115;28;45757;-72
2023/05/03 00:57:27;;;;;;;;;14.50;11.50;;;;;13.58;48.66;102016.72;5075058;27;46747;-79
2023/05/03 00:59:54;;;;;;;;;10.00;7.75;;;;;13.52;48.23;102014.88;5054752;28;45355;-74
2023/05/03 01:02:20;;;;;;;;;12.75;12.75;;;;;13.50;48.28;102011.38;5070192;27;45499;-72
2023/05/03 01:04:46;;;;;;;;;17.00;12.50;;;;;13.52;48.79;102017.53;5063663;28;45520;-77
2023/05/03 01:07:29;;;;;;;;;13.25;11.75;;;;;13.50;48.66;102019.28;5057012;28;46676;-77
2023/05/03 01:10:07;;;;;;;;;12.00;10.25;;;;;13.45;48.39;102025.34;5063580;28;45700;-74
2023/05/03 01:13:11;;;;;;;;;12.50;11.50;;;;;13.40;48.51;102017.41;5056404;28;45373;-76
2023/05/03 01:16:05;;;;;;;;;14.50;12.50;;;;;13.43;48.32;102008.66;5027568;28;45430;-75
2023/05/03 01:18:37;;;;;;;;;14.50;12.25;;;;;13.29;48.53;101998.88;5075039;28;45602;-71
2023/05/03 01:21:04;;;;;;;;;18.00;14.00;;;;;13.27;48.40;102008.50;5075376;27;45543;-75
2023/05/03 01:23:45;;;;;;;;;17.00;17.00;;;;;13.32;49.01;102019.94;5074885;28;45484;-70
2023/05/03 01:26:16;;;;;;;;;17.25;13.75;;;;;13.20;48.65;101998.75;5072927;28;45417;-71
2023/05/03 01:28:42;;;;;;;;;13.25;12.75;;;;;13.12;49.25;101996.03;5078760;28;46351;-70
2023/05/03 01:31:09;;;;;;;;;17.75;13.50;;;;;13.13;49.17;102007.44;5079095;28;45402;-71
2023/05/03 01:34:12;;;;;;;;;15.50;13.00;;;;;13.11;49.61;102019.69;5059467;28;45521;-76
2023/05/03 01:36:41;;;;;;;;;19.25;14.75;;;;;13.05;49.50;102015.22;5055593;28;45809;-77
2023/05/03 01:39:13;;;;;;;;;20.25;16.00;;;;;13.07;49.21;102002.06;5055219;27;45688;-72
2023/05/03 01:41:40;;;;;;;;;17.75;15.75;;;;;13.14;48.67;102024.97;5067531;28;45733;-75
2023/05/03 01:44:08;;;;;;;;;14.50;11.50;;;;;12.98;49.67;102017.75;5043850;28;45550;-71
2023/05/03 01:46:33;;;;;;;;;12.50;12.25;;;;;13.06;49.65;102027.50;5079598;27;45434;-72
2023/05/03 01:48:59;;;;;;;;;11.50;10.75;;;;;13.10;50.05;102033.69;5082285;28;46446;-79
2023/05/03 01:51:24;;;;;;;;;10.75;10.25;;;;;13.15;49.65;102032.88;5082132;27;45481;-73
2023/05/03 01:53:50;;;;;;;;;9.25;9.25;;;;;13.24;49.35;102018.06;5065621;28;45354;-71
2023/05/03 01:56:15;;;;;;;;;14.50;11.25;;;;;13.32;48.77;102005.91;5083143;28;45493;-74
2023/05/03 01:58:41;;;;;;;;;16.50;14.50;;;;;13.57;48.50;102036.91;5081355;28;46266;-78
2023/05/03 02:01:07;;;;;;;;;15.75;13.75;;;;;13.41;48.04;102013.91;5056869;28;45472;-71
2023/05/03 02:03:33;;;;;;;;;14.00;11.50;;;;;13.42;48.34;102031.47;5070504;28;45770;-75
2023/05/03 02:05:58;;;;;;;;;17.00;12.00;;;;;13.49;48.28;102035.03;5059777;28;45659;-77
2023/05/03 02:08:24;;;;;;;;;16.75;14.75;;;;;13.45;48.57;102020.97;5068999;28;46235;-76
2023/05/03 02:10:50;;;;;;;;;12.00;11.75;;;;;13.47;48.35;102019.22;5051303;28;45510;-72
2023/05/03 02:13:15;;;;;;;;;12.50;11.75;;;;;13.66;48.63;102043.13;5074402;28;45557;-76
2023/05/03 02:15:41;;;;;;;;;15.50;11.00;;;;;13.50;48.34;102014.03;5057406;28;45756;-78
2023/05/03 02:18:07;;;;;;;;;10.75;10.00;;;;;13.63;48.79;102030.81;5055685;28;45521;-76
2023/05/03 02:20:36;;;;;;;;;12.50;10.50;;;;;13.69;48.73;102035.25;5051404;28;45391;-78
2023/05/03 02:23:05;;;;;;;;;13.75;9.00;;;;;13.76;48.56;102026.53;5060449;27;45466;-76
2023/05/03 02:25:30;;;;;;;;;12.00;12.00;;;;;13.77;48.37;102020.41;5054256;28;45370;-74
2023/05/03 02:27:56;;;;;;;;;12.75;10.50;;;;;13.84;48.43;102018.72;5066250;28;46980;-75
2023/05/03 02:30:22;;;;;;;;;22.25;20.75;;;;;13.90;48.52;102043.34;5074415;28;45399;-71
2023/05/03 02:32:47;;;;;;;;;21.25;17.00;;;;;13.72;48.43;102025.63;5052806;28;45438;-72
2023/05/03 02:35:13;;;;;;;;;16.50;15.25;;;;;13.63;49.14;102041.34;5074629;28;45484;-75
2023/05/03 02:37:39;;;;;;;;;19.00;17.50;;;;;13.45;49.43;102022.72;5074290;28;46336;-76
2023/05/03 02:40:05;;;;;;;;;21.50;18.25;;;;;13.45;49.38;102041.13;5072382;28;45538;-74
2023/05/03 02:42:30;;;;;;;;;21.00;16.75;;;;;13.23;49.77;102004.03;5047759;28;45473;-76
2023/05/03 02:44:56;;;;;;;;;15.75;15.00;;;;;13.29;49.73;102035.72;5071161;28;45422;-77
2023/05/03 02:47:22;;;;;;;;;17.00;15.75;;;;;13.23;50.66;102034.72;5052506;28;46608;-77
2023/05/03 02:49:47;;;;;;;;;15.75;14.25;;;;;13.18;50.20;102020.63;5077427;28;45378;-79
2023/05/03 02:52:13;;;;;;;;;16.00;16.00;;;;;13.09;50.74;102016.13;5078615;28;45476;-75
2023/05/03 02:54:38;;;;;;;;;17.75;17.00;;;;;13.02;50.43;102030.06;5075109;28;45473;-77
2023/05/03 02:57:04;;;;;;;;;14.50;14.25;;;;;12.96;51.01;102044.03;5076116;28;45478;-75
2023/05/03 02:59:31;;;;;;;;;20.75;17.50;;;;;13.01;50.82;102044.09;5058308;28;45677;-76
2023/05/03 03:01:57;;;;;;;;;17.00;12.00;;;;;13.04;50.47;102036.25;5073610;28;45488;-76
2023/05/03 03:04:25;;;;;;;;;17.00;15.50;;;;;13.04;50.51;102034.50;5074808;28;45529;-74
2023/05/03 03:06:52;;;;;;;;;19.50;16.75;;;;;12.82;50.90;101999.16;5059459;28;47902;-76
2023/05/03 03:09:18;;;;;;;;;19.00;15.25;;;;;13.05;51.05;102035.38;5074315;28;45621;-73
2023/05/03 03:11:44;;;;;;;;;18.25;14.25;;;;;13.02;51.36;102019.56;5054040;28;45708;-77
2023/05/03 03:14:10;;;;;;;;;18.25;12.75;;;;;12.99;51.00;102020.41;5071767;28;45400;-78
2023/05/03 03:16:35;;;;;;;;;17.75;16.00;;;;;12.98;51.58;102018.66;5074649;28;46327;-74
2023/05/03 03:19:01;;;;;;;;;14.75;14.00;;;;;13.03;50.99;102022.22;5059554;28;45371;-77
2023/05/03 03:21:27;;;;;;;;;19.00;17.50;;;;;12.91;51.36;102006.28;5074869;27;45335;-75
2023/05/03 03:23:54;;;;;;;;;16.50;15.00;;;;;12.94;51.54;101998.44;5080536;27;45402;-77
2023/05/03 03:26:20;;;;;;;;;21.75;17.25;;;;;12.93;50.95;101994.94;5058582;28;46447;-69
2023/05/03 03:28:45;;;;;;;;;23.75;18.50;;;;;12.94;50.70;101990.53;5077027;27;45370;-73
2023/05/03 03:31:11;;;;;;;;;18.25;14.75;;;;;12.96;51.25;102009.84;5079669;27;45876;-75
2023/05/03 03:33:37;;;;;;;;;19.00;14.25;;;;;12.89;51.72;102003.63;5059698;28;45485;-70
2023/05/03 03:36:05;;;;;;;;;16.50;13.75;;;;;13.00;51.14;102018.66;5071193;28;45399;-74
2023/05/03 03:38:39;;;;;;;;;14.25;14.25;;;;;13.03;50.88;102001.19;5077759;28;45505;-78
2023/05/03 03:41:05;;;;;;;;;22.75;19.00;;;;;13.03;50.47;101990.66;5082869;27;45509;-73
2023/05/03 03:43:31;;;;;;;;;19.00;17.25;;;;;12.96;50.95;101985.31;5059780;28;45422;-77
2023/05/03 03:45:56;;;;;;;;;24.75;18.00;;;;;12.89;51.06;101986.97;5055557;28;47670;-70
2023/05/03 03:48:29;;;;;;;;;20.75;13.75;;;;;12.61;50.96;101965.56;5071709;28;45457;-77
2023/05/03 03:50:55;;;;;;;;;24.50;19.50;;;;;12.61;51.07;101970.84;5081768;28;45439;-74
2023/05/03 03:53:20;;;;;;;;;18.25;17.50;;;;;12.63;51.47;101998.03;5081318;28;45328;-73
2023/05/03 03:55:46;;;;;;;;;23.00;18.50;;;;;12.46;52.15;101976.78;5077946;28;45391;-75
2023/05/03 03:58:12;;;;;;;;;29.25;23.00;;;;;12.47;51.96;101985.53;5078046;27;45878;-76
2023/05/03 04:00:37;;;;;;;;;24.50;17.75;;;;;12.45;52.00;101990.75;5062026;28;45514;-76
2023/05/03 04:03:05;;;;;;;;;27.00;20.50;;;;;12.43;52.38;101992.50;5081640;27;45592;-71
2023/05/03 04:05:31;;;;;;;;;19.50;16.25;;;;;12.33;52.34;101976.56;5064882;27;46882;-78
2023/05/03 04:07:57;;;;;;;;;25.00;17.50;;;;;12.46;52.35;101987.28;5077227;27;45342;-76
2023/05/03 04:10:23;;;;;;;;;19.75;17.50;;;;;12.44;52.63;101981.13;5078580;28;45286;-73
2023/05/03 04:12:48;;;;;;;;;26.00;18.75;;;;;12.47;52.37;101999.56;5078864;28;45680;-72
2023/05/03 04:15:14;;;;;;;;;19.25;17.00;;;;;12.41;52.40;101993.31;5077231;28;45382;-78
2023/05/03 04:17:40;;;;;;;;;28.00;22.25;;;;;12.38;52.67;101982.78;5076811;28;45370;-78
2023/05/03 04:20:06;;;;;;;;;31.00;26.25;;;;;12.48;52.75;101992.53;5077198;27;45654;-75
2023/05/03 04:22:32;;;;;;;;;29.50;23.00;;;;;12.26;53.29;101997.47;5058833;28;45527;-76
2023/05/03 04:25:00;;;;;;;;;21.75;21.75;;;;;12.20;53.02;102000.03;5071294;28;46742;-75
2023/05/03 04:27:26;;;;;;;;;20.50;15.50;;;;;12.23;52.72;102000.06;5074673;28;45398;-76
2023/05/03 04:29:52;;;;;;;;;22.75;18.00;;;;;12.20;53.01;101989.53;5060238;28;45575;-77
2023/05/03 04:32:22;;;;;;;;;28.25;20.75;;;;;12.10;53.22;101987.59;5081240;28;45180;-77
2023/05/03 04:34:51;;;;;;;;;22.00;20.50;;;;;12.07;53.75;101990.19;5058896;28;46398;-76
2023/05/03 04:37:21;;;;;;;;;19.00;17.00;;;;;12.04;53.78;101985.78;5072279;28;45505;-77
2023/05/03 04:39:47;;;;;;;;;21.25;17.50;;;;;12.21;53.32;101995.66;5078045;27;45774;-77
2023/05/03 04:42:16;;;;;;;;;20.75;16.25;;;;;12.21;53.16;101990.41;5053591;28;45504;-76
2023/05/03 04:44:41;;;;;;;;;21.50;21.50;;;;;12.14;53.38;101980.66;5067102;28;47089;-78
2023/05/03 04:47:07;;;;;;;;;26.50;23.00;;;;;12.30;53.08;101990.53;5077917;27;45328;-77
2023/05/03 04:49:33;;;;;;;;;27.50;24.50;;;;;12.18;53.48;101987.75;5061389;28;45362;-76
2023/05/03 04:51:59;;;;;;;;;28.00;25.50;;;;;12.07;53.51;101979.69;5076349;27;45845;-76
2023/05/03 04:54:25;;;;;;;;;31.25;24.75;;;;;12.15;53.25;102006.06;5076341;28;45637;-77
2023/05/03 04:56:52;;;;;;;;;32.25;25.25;;;;;12.17;53.57;102010.50;5054434;28;45439;-77
2023/05/03 04:59:17;;;;;;;;;31.75;25.75;;;;;12.24;52.94;101993.06;5061746;28;45433;-79
2023/05/03 05:01:43;;;;;;;;;39.75;29.25;;;;;12.30;53.36;102008.94;5074453;28;45551;-78
2023/05/03 05:04:08;;;;;;;;;40.50;28.50;;;;;12.27;53.32;102008.91;5076538;27;45949;-78
2023/05/03 05:06:34;;;;;;;;;36.75;29.50;;;;;12.30;53.05;102001.06;5080235;28;45596;-77
2023/05/03 05:08:59;;;;;;;;;29.25;21.50;;;;;12.34;52.45;101992.38;5074966;27;45469;-77
2023/05/03 05:11:26;;;;;;;;;24.75;20.75;;;;;12.28;52.62;101990.50;5080667;28;45538;-76
2023/05/03 05:13:51;;;;;;;;;22.50;17.00;;;;;12.27;52.94;101974.75;5054124;28;46988;-72
2023/05/03 05:16:18;;;;;;;;;22.25;20.50;;;;;12.59;52.82;102006.72;5072081;28;45382;-77
2023/05/03 05:18:44;;;;;;;;;23.00;16.25;;;;;12.72;52.11;101990.28;5073724;28;45372;-77
2023/05/03 05:21:11;;;;;;;;;16.25;15.50;;;;;12.90;51.79;101999.25;5076918;28;45748;-79
2023/05/03 05:23:37;;;;;;;;;21.25;18.00;;;;;13.04;51.90;101992.41;5055146;28;45560;-77
2023/05/03 05:26:03;;;;;;;;;22.75;17.25;;;;;13.10;51.09;101987.22;5072070;28;45501;-75
2023/05/03 05:28:29;;;;;;;;;22.50;17.75;;;;;13.34;51.12;101997.19;5058647;28;45617;-78
2023/05/03 05:30:54;;;;;;;;;30.50;19.75;;;;;13.46;50.43;101985.03;5076650;28;45685;-79
2023/05/03 05:33:20;;;;;;;;;24.00;17.50;;;;;13.42;50.65;101984.09;5079737;27;45396;-74
2023/05/03 05:35:47;;;;;;;;;15.75;12.00;;;;;13.56;50.56;101989.50;5079634;28;45405;-75
2023/05/03 05:38:16;;;;;;;;;18.25;17.25;;;;;13.52;50.83;101962.25;5059162;28;45406;-75
2023/05/03 05:40:42;;;;;;;;;24.50;21.00;;;;;13.74;50.26;101975.63;5075657;27;45537;-72
2023/05/03 05:43:08;;;;;;;;;21.25;17.25;;;;;13.84;49.69;101998.53;5058194;28;47622;-76
2023/05/03 05:45:34;;;;;;;;;20.75;18.75;;;;;13.71;49.87;101994.88;5077733;28;45493;-74
2023/05/03 05:47:59;;;;;;;;;20.50;17.25;;;;;13.52;49.60;101977.16;5075223;28;45857;-71
2023/05/03 05:50:25;;;;;;;;;25.50;22.50;;;;;13.41;49.55;101978.84;5058984;28;45529;-75
2023/05/03 05:52:54;;;;;;;;;22.00;18.25;;;;;13.25;50.23;101969.84;5078787;28;45481;-72
2023/05/03 05:55:20;;;;;;;;;28.00;20.25;;;;;13.48;50.47;102005.22;5075153;28;45663;-78
2023/05/03 05:57:45;;;;;;;;;23.00;19.75;;;;;13.50;50.29;102002.59;5074992;28;45374;-74
2023/05/03 06:00:16;;;;;;;;;17.75;17.75;;;;;13.34;50.19;102004.19;5056966;28;45487;-78
2023/05/03 06:02:42;;;;;;;;;24.25;19.75;;;;;13.20;50.24;102000.50;5074399;28;45880;-75
2023/05/03 06:05:09;;;;;;;;;22.25;20.75;;;;;13.09;50.50;102001.22;5076526;28;45409;-74
2023/05/03 06:07:35;;;;;;;;;25.50;20.75;;;;;13.12;50.67;102006.56;5079527;28;45338;-72
2023/05/03 06:10:01;;;;;;;;;18.50;16.50;;;;;13.01;50.46;101988.88;5077506;27;45318;-72
2023/05/03 06:12:26;;;;;;;;;26.75;20.25;;;;;13.18;50.84;102020.63;5058468;28;47853;-71
2023/05/03 06:14:52;;;;;;;;;22.50;19.75;;;;;13.01;50.77;101975.72;5051932;28;45516;-71
2023/05/03 06:17:18;;;;;;;;;22.50;19.50;;;;;13.19;50.37;102003.97;5061895;28;45541;-74
2023/05/03 06:19:44;;;;;;;;;23.00;19.25;;;;;13.25;50.51;102007.56;5067708;28;45486;-73
2023/05/03 06:22:10;;;;;;;;;20.25;18.50;;;;;13.30;50.01;102002.38;5061627;28;46213;-75
2023/05/03 06:24:35;;;;;;;;;24.25;18.00;;;;;13.41;49.97;102007.78;5068490;28;45661;-74
2023/05/03 06:27:01;;;;;;;;;28.00;20.25;;;;;13.44;49.80;102008.69;5074708;28;45556;-73
2023/05/03 06:29:28;;;;;;;;;22.75;21.25;;;;;13.48;50.01;102010.47;5053931;28;45587;-74
2023/05/03 06:31:53;;;;;;;;;25.75;21.50;;;;;13.38;50.48;101973.50;5066690;27;45449;-72
2023/05/03 06:34:20;;;;;;;;;21.00;20.75;;;;;13.60;49.57;102004.47;5052747;28;45329;-74
2023/05/03 06:36:46;;;;;;;;;26.50;23.25;;;;;13.61;49.61;102000.94;5053739;28;45701;-73
2023/05/03 06:39:13;;;;;;;;;27.50;21.00;;;;;13.57;49.60;101989.53;5053822;28;45867;-71
2023/05/03 06:41:39;;;;;;;;;22.75;20.75;;;;;13.61;49.75;101992.19;5054580;28;46286;-74
2023/05/03 06:44:08;;;;;;;;;25.00;20.25;;;;;13.58;49.71;101996.53;5060304;28;45486;-70
2023/05/03 06:46:34;;;;;;;;;23.25;18.25;;;;;13.58;50.16;101986.00;5060046;28;45525;-72
2023/05/03 06:49:00;;;;;;;;;25.25;18.50;;;;;13.74;49.70;102002.84;5068200;27;45530;-76
2023/05/03 06:51:27;;;;;;;;;23.75;19.00;;;;;13.79;49.61;101984.44;5065313;28;45374;-73
2023/05/03 06:53:59;;;;;;;;;23.75;21.00;;;;;13.94;49.64;102002.13;5073383;28;45482;-71
2023/05/03 06:56:25;;;;;;;;;26.25;16.50;;;;;13.92;49.50;101982.78;5036467;28;45473;-72
2023/05/03 06:58:52;;;;;;;;;24.50;18.50;;;;;13.93;49.05;101989.84;5071672;28;45459;-72
2023/05/03 07:01:19;;;;;;;;;19.25;16.50;;;;;14.06;49.40;102009.25;5070633;28;45516;-74
2023/05/03 07:03:45;;;;;;;;;15.50;13.25;;;;;14.26;49.19;101990.94;5053286;28;45664;-77
2023/05/03 07:06:11;;;;;;;;;18.00;13.50;;;;;14.50;48.86;101991.13;5056750;28;45434;-75
2023/05/03 07:08:36;;;;;;;;;24.75;20.50;;;;;14.69;48.25;101980.66;5062169;27;45379;-76
2023/05/03 07:11:03;;;;;;;;;22.00;18.75;;;;;14.65;47.75;101969.25;5061231;28;46853;-75
2023/05/03 07:13:30;;;;;;;;;23.25;18.00;;;;;14.74;47.51;101987.75;5067149;28;45496;-76
2023/05/03 07:15:56;;;;;;;;;23.50;17.50;;;;;14.75;48.14;101988.63;5050530;28;45457;-71
2023/05/03 07:18:21;;;;;;;;;17.75;14.00;;;;;14.87;48.19;101980.75;5059994;28;45421;-74
2023/05/03 07:20:47;;;;;;;;;19.25;18.00;;;;;15.02;47.85;101972.91;5073484;28;45442;-77
2023/05/03 07:23:14;;;;;;;;;19.50;17.75;;;;;15.04;47.49;101959.72;5064310;28;45553;-76
2023/05/03 07:25:44;;;;;;;;;20.00;16.75;;;;;15.02;47.11;101972.91;5053176;28;45600;-75
2023/05/03 07:28:10;;;;;;;;;19.75;18.00;;;;;14.91;46.68;101958.81;5064821;27;45921;-73
2023/05/03 07:30:36;;;;;;;;;23.25;18.00;;;;;15.04;47.07;101967.63;5072790;28;45643;-76
2023/05/03 07:33:03;;;;;;;;;19.00;17.75;;;;;15.19;47.09;101951.84;5056737;28;45628;-71
2023/05/03 07:35:31;;;;;;;;;23.25;18.50;;;;;15.37;46.66;101963.31;5061888;28;45423;-74
2023/05/03 07:37:57;;;;;;;;;20.75;17.75;;;;;15.48;46.59;101949.25;5059952;28;45336;-76
2023/05/03 07:40:23;;;;;;;;;21.25;18.25;;;;;15.67;46.22;101963.34;5078243;28;45508;-74
2023/05/03 07:42:49;;;;;;;;;26.00;22.75;;;;;15.62;45.56;101946.63;5066135;28;45813;-71
2023/05/03 07:45:14;;;;;;;;;23.00;19.00;;;;;15.60;45.51;101950.16;5056525;28;45848;-75
2023/05/03 07:47:40;;;;;;;;;23.50;19.50;;;;;15.65;45.48;101956.31;5063135;28;45433;-80
2023/05/03 07:50:06;;;;;;;;;24.00;18.67;;;;;15.61;45.93;101955.44;5069897;28;45430;-73
2023/05/03 07:52:36;;;;;;;;;21.75;19.00;;;;;15.51;45.85;101951.00;5054825;28;45758;-72
2023/05/03 07:55:02;;;;;;;;;24.25;24.25;;;;;15.37;46.46;101915.81;5053847;28;45807;-74
2023/05/03 07:57:29;;;;;;;;;20.00;18.00;;;;;15.52;45.74;101931.66;5059641;28;45351;-76
2023/05/03 07:59:55;;;;;;;;;23.25;19.50;;;;;15.53;45.97;101927.25;5045176;28;47021;-71
2023/05/03 08:02:21;;;;;;;;;28.00;19.50;;;;;15.53;45.83;101912.28;5057667;28;46124;-76
2023/05/03 08:04:47;;;;;;;;;18.50;16.50;;;;;15.58;45.77;101902.59;5062671;28;45371;-76
2023/05/03 08:07:13;;;;;;;;;16.67;16.00;;;;;15.80;45.76;101929.03;5070329;28;45833;-78
2023/05/03 08:09:39;;;;;;;;;21.00;13.50;;;;;15.98;45.56;101923.75;5060414;28;47903;-72
2023/05/03 08:12:05;;;;;;;;;18.50;16.25;;;;;16.16;45.45;101911.38;5060801;28;45386;-73
2023/05/03 08:14:32;;;;;;;;;17.67;15.33;;;;;16.20;45.40;101892.84;5079902;28;45381;-75
2023/05/03 08:16:58;;;;;;;;;16.67;14.33;;;;;16.41;44.89;101896.31;5074077;27;45449;-71
2023/05/03 08:19:24;;;;;;;;;18.25;16.50;;;;;16.67;44.22;101914.72;5060401;28;46727;-77
2023/05/03 08:21:53;;;;;;;;;22.33;18.67;;;;;16.60;44.26;101890.06;5068401;28;45812;-76
2023/05/03 08:24:19;;;;;;;;;14.00;13.67;;;;;16.86;44.38;101908.50;5045894;28;45434;-74
2023/05/03 08:26:47;;;;;;;;;11.33;11.00;;;;;16.99;44.02;101909.31;5057333;28;45537;-71
2023/05/03 08:29:13;;;;;;;;;20.25;18.75;;;;;17.08;43.54;101903.06;5071978;28;46210;-75
2023/05/03 08:31:39;;;;;;;;;26.50;19.75;;;;;16.96;43.27;101906.66;5059891;28;45463;-70
2023/05/03 08:34:06;;;;;;;;;18.67;17.00;;;;;16.95;43.61;101899.63;5060379;28;45631;-72
2023/05/03 08:36:33;;;;;;;;;23.00;20.00;;;;;16.74;43.95;101863.56;5056609;28;45456;-72
2023/05/03 08:38:58;;;;;;;;;18.33;17.33;;;;;16.94;44.26;101903.16;5055997;28;45773;-71
2023/05/03 08:41:29;;;;;;;;;22.00;17.33;;;;;16.91;44.78;101893.47;5045703;28;45525;-71
2023/05/03 08:43:56;;;;;;;;;22.67;19.67;;;;;16.98;45.11;101898.72;5065454;28;45499;-69
2023/05/03 08:46:22;;;;;;;;;18.33;17.00;;;;;16.82;44.37;101874.13;5074287;28;45648;-69
2023/05/03 08:48:49;;;;;;;;;23.00;17.67;;;;;16.84;43.74;101889.09;5076117;28;46146;-72
2023/05/03 08:51:18;;;;;;;;;20.00;16.67;;;;;16.75;44.02;101886.47;5060109;28;45350;-72
2023/05/03 08:53:45;;;;;;;;;24.00;19.67;;;;;16.74;44.55;101884.72;5075511;27;45272;-72
2023/05/03 08:56:23;;;;;;;;;18.67;15.67;;;;;16.86;44.42;101895.25;5075231;27;45509;-74
2023/05/03 08:58:49;;;;;;;;;20.67;14.33;;;;;16.91;44.79;101872.28;5057442;28;47872;-71
2023/05/03 09:01:15;;;;;;;;;19.67;19.00;;;;;17.07;44.19;101886.31;5055179;28;45508;-75
2023/05/03 09:03:51;;;;;;;;;17.67;15.33;;;;;17.06;44.46;101884.56;5050907;28;45434;-73
2023/05/03 09:06:21;;;;;;;;;20.33;15.33;;;;;16.99;44.76;101877.56;5074046;28;45846;-73
2023/05/03 09:08:51;;;;;;;;;15.00;13.33;;;;;17.20;45.32;101883.56;5076990;27;45435;-73
2023/05/03 09:11:21;;;;;;;;;20.33;15.00;;;;;17.09;43.76;101855.44;5057478;28;45735;-72
2023/05/03 09:13:47;;;;;;;;;16.67;15.00;;;;;17.26;43.18;101876.47;5077937;28;45261;-70
2023/05/03 09:16:22;;;;;;;;;15.33;15.33;;;;;17.24;42.83;101877.38;5062742;28;45500;-73
2023/05/03 09:19:00;;;;;;;;;20.00;18.33;;;;;17.31;42.67;101871.16;5080211;28;45597;-77
2023/05/03 09:21:30;;;;;;;;;15.67;15.67;;;;;17.32;42.73;101865.84;5061494;28;45581;-73
2023/05/03 09:23:56;;;;;;;;;16.67;15.67;;;;;17.30;42.32;101875.56;5073291;27;45447;-78
2023/05/03 09:26:34;;;;;;;;;20.00;16.00;;;;;17.16;42.13;101866.84;5055930;28;46495;-76
2023/05/03 09:29:01;;;;;;;;;23.33;18.00;;;;;17.19;42.30;101872.13;5066626;28;46186;-78
2023/05/03 09:31:28;;;;;;;;;22.00;17.33;;;;;17.11;42.00;101844.84;5062634;28;45644;-77
2023/05/03 09:33:55;;;;;;;;;20.00;14.33;;;;;17.25;42.28;101871.19;5063118;28;45402;-80
2023/05/03 09:36:20;;;;;;;;;16.67;16.67;;;;;17.29;42.75;101857.03;5056209;28;45627;-77
2023/05/03 09:38:46;;;;;;;;;11.00;11.00;;;;;17.49;42.48;101884.25;5055235;28;46658;-78
2023/05/03 09:41:12;;;;;;;;;21.00;17.33;;;;;17.37;42.64;101856.09;5036879;28;45475;-77
2023/05/03 09:44:01;;;;;;;;;20.33;17.67;;;;;17.52;42.46;101873.63;5060954;28;45715;-76
2023/05/03 09:46:28;;;;;;;;;15.33;12.33;;;;;17.54;42.81;101858.59;5057772;28;45431;-78
2023/05/03 09:48:55;;;;;;;;;15.00;14.67;;;;;17.59;42.38;101863.84;5078429;27;45637;-80
2023/05/03 09:51:22;;;;;;;;;17.33;15.00;;;;;17.49;42.53;101852.47;5061030;28;45620;-77
2023/05/03 09:53:48;;;;;;;;;15.00;13.33;;;;;17.57;42.92;101868.28;5058682;28;45484;-71
2023/05/03 09:56:14;;;;;;;;;14.33;12.67;;;;;17.59;42.73;101867.38;5074935;28;45351;-73
2023/05/03 09:58:41;;;;;;;;;17.67;14.33;;;;;17.74;43.56;101871.63;5077069;27;46117;-69
2023/05/03 10:01:08;;;;;;;;;16.67;13.33;;;;;17.79;43.16;101847.75;5079758;28;45365;-72
2023/05/03 10:03:38;;;;;;;;;17.00;14.67;;;;;17.98;42.22;101870.53;5078680;28;45458;-70
2023/05/03 10:06:09;;;;;;;;;18.33;13.33;;;;;17.97;41.93;101863.50;5077965;27;45493;-71
2023/05/03 10:09:09;;;;;;;;;14.00;13.00;;;;;18.05;42.37;101859.88;5074586;28;46658;-70
2023/05/03 10:11:35;;;;;;;;;19.33;15.67;;;;;18.10;42.14;101847.44;5078517;28;45551;-71
2023/05/03 10:14:01;;;;;;;;;16.33;16.33;;;;;18.05;42.04;101839.53;5059943;28;45636;-73
2023/05/03 10:16:32;;;;;;;;;16.00;14.00;;;;;18.25;42.38;101847.28;5058389;28;45508;-72
2023/05/03 10:19:17;;;;;;;;;17.67;14.00;;;;;18.38;42.13;101850.66;5071012;28;45423;-70
2023/05/03 10:22:08;;;;;;;;;16.00;14.33;;;;;18.48;41.79;101844.31;5076160;28;45508;-71
2023/05/03 10:24:35;;;;;;;;;14.33;13.67;;;;;18.44;41.65;101829.38;5080265;27;45421;-70
2023/05/03 10:27:05;;;;;;;;;16.00;14.33;;;;;18.51;41.95;101823.06;5078233;28;45347;-74
2023/05/03 10:29:37;;;;;;;;;20.33;13.67;;;;;18.62;41.75;101828.22;5050609;28;46873;-72
2023/05/03 10:32:04;;;;;;;;;20.67;15.67;;;;;18.79;42.01;101828.00;5054717;28;45845;-71
2023/05/03 10:34:38;;;;;;;;;21.00;15.33;;;;;18.86;41.25;101819.03;5074329;28;45421;-74
2023/05/03 10:37:09;;;;;;;;;16.67;14.67;;;;;18.90;41.45;101825.19;5073078;28;45442;-70
2023/05/03 10:39:35;;;;;;;;;15.33;14.00;;;;;18.93;41.64;101823.34;5075787;28;46666;-71
2023/05/03 10:42:03;;;;;;;;;22.00;15.67;;;;;18.98;41.34;101807.38;5071952;28;45316;-71
2023/05/03 10:44:37;;;;;;;;;19.67;18.00;;;;;18.94;41.74;101803.03;5054546;28;45877;-71
2023/05/03 10:47:22;;;;;;;;;19.33;17.00;;;;;19.14;41.98;101810.66;5071050;28;45379;-70
2023/05/03 10:50:10;;;;;;;;;18.67;17.00;;;;;19.33;41.40;101809.44;5071098;28;45628;-70
2023/05/03 10:53:09;;;;;;;;;16.33;16.33;;;;;19.43;40.81;101808.41;5070559;28;45482;-72
2023/05/03 10:55:35;;;;;;;;;15.67;13.67;;;;;19.52;40.62;101796.69;5054873;27;45474;-76
2023/05/03 10:58:02;;;;;;;;;13.00;10.67;;;;;19.58;40.53;101774.47;5078384;28;45469;-69
2023/05/03 11:00:46;;;;;;;;;16.00;13.67;;;;;19.63;40.34;101738.91;5072192;28;45526;-72
2023/05/03 11:03:27;;;;;;;;;16.67;13.67;;;;;19.98;39.97;101774.59;5064599;28;45466;-73
2023/05/03 11:05:53;;;;;;;;;18.67;17.00;;;;;19.97;40.11;101774.63;5075097;28;45747;-71
2023/05/03 11:08:21;;;;;;;;;16.00;14.33;;;;;19.92;39.87;101756.97;5084140;28;45376;-70
2023/05/03 11:10:50;;;;;;;;;16.67;14.67;;;;;20.07;40.09;101777.06;5075310;28;45488;-70
2023/05/03 11:13:16;;;;;;;;;14.00;12.33;;;;;20.15;39.92;101768.91;5073776;28;45416;-70